Time;durP1;ratioP1;P1;durP2;ratioP2;P2;SDS_P1;SDS_P2;PMS_P1;PMS_P2;Temp;Humidity;BMP_temperature;BMP_pressure;BME280_temperature;BME280_humidity;BME280_pressure;Samples;Min_cycle;Max_cycle;Signal;HPM_P1;HPM_P2
2023/02/20 00:03:49;;;;;;;;;;;5.90;99.90;;;;;;8385797;28;19924;-73
2023/02/20 00:07:51;;;;;;;;;;;5.90;99.90;;;;;;8372724;28;19985;-73
2023/02/20 00:11:53;;;;;;;;;;;5.90;99.90;;;;;;8384352;28;19938;-72
2023/02/20 00:15:54;;;;;;;;;;;6.00;99.90;;;;;;8366793;28;19928;-73
2023/02/20 00:19:56;;;;;;;;;;;5.90;99.90;;;;;;8391848;28;20360;-73
2023/02/20 00:23:57;;;;;;;;;;;5.90;99.90;;;;;;8391845;28;19960;-72
2023/02/20 00:27:59;;;;;;;;;;;6.00;99.90;;;;;;8384655;28;19967;-72
2023/02/20 00:32:01;;;;;;;;;;;6.00;99.90;;;;;;8387100;28;19928;-72
2023/02/20 00:36:03;;;;;;;;;;;6.10;99.90;;;;;;8368648;28;19931;-72
2023/02/20 00:40:06;;;;;;;;;;;6.20;99.90;;;;;;8382481;28;19932;-73
2023/02/20 00:44:07;;;;;;;;;;;6.20;99.90;;;;;;8388985;28;19930;-72
2023/02/20 00:48:09;;;;;;;;;;;6.20;99.90;;;;;;8385870;28;20287;-72
2023/02/20 00:52:10;;;;;;;;;;;6.20;99.90;;;;;;8379792;28;20475;-72
2023/02/20 00:56:15;;;;;;;;;;;6.20;99.90;;;;;;8379909;28;19928;-72
2023/02/20 01:00:24;;;;;;;;;;;6.10;99.90;;;;;;8376959;28;19929;-72
2023/02/20 01:04:26;;;;;;;;;;;6.10;99.90;;;;;;8372347;28;20326;-73
2023/02/20 01:08:27;;;;;;;;;;;6.10;99.90;;;;;;8375282;28;20326;-73
2023/02/20 01:12:29;;;;;;;;;;;6.10;99.90;;;;;;8387752;28;19924;-73
2023/02/20 01:16:30;;;;;;;;;;;6.00;99.90;;;;;;8384891;28;19933;-72
2023/02/20 01:20:32;;;;;;;;;;;6.00;99.90;;;;;;8387070;28;20075;-72
2023/02/20 01:24:34;;;;;;;;;;;5.90;99.90;;;;;;8387148;28;19947;-72
2023/02/20 01:28:36;;;;;;;;;;;5.90;99.90;;;;;;8364464;28;20007;-73
2023/02/20 01:32:37;;;;;;;;;;;5.80;99.90;;;;;;8379981;28;20274;-72
2023/02/20 01:36:44;;;;;;;;;;;5.80;99.90;;;;;;8384629;28;19931;-72
2023/02/20 01:40:46;;;;;;;;;;;5.80;99.90;;;;;;8360332;28;20321;-72
2023/02/20 01:44:48;;;;;;;;;;;5.80;99.90;;;;;;8387278;28;19975;-72
2023/02/20 01:48:50;;;;;;;;;;;5.80;99.90;;;;;;8383664;28;19954;-72
2023/02/20 01:52:53;;;;;;;;;;;5.80;99.90;;;;;;8369572;28;19974;-72
2023/02/20 01:56:56;;;;;;;;;;;5.90;99.90;;;;;;8378087;28;20368;-72
2023/02/20 02:00:59;;;;;;;;;;;5.90;99.90;;;;;;8375742;28;20286;-73
2023/02/20 02:05:01;;;;;;;;;;;6.00;99.90;;;;;;8396910;28;19936;-72
2023/02/20 02:09:07;;;;;;;;;;;6.10;99.90;;;;;;8384329;28;20038;-72
2023/02/20 02:13:09;;;;;;;;;;;6.20;99.90;;;;;;8394731;28;19925;-72
2023/02/20 02:17:11;;;;;;;;;;;6.20;99.90;;;;;;8391938;28;20062;-72
2023/02/20 02:21:18;;;;;;;;;;;6.30;99.90;;;;;;8397026;28;19932;-72
2023/02/20 02:25:20;;;;;;;;;;;6.40;99.90;;;;;;8396415;28;20464;-72
2023/02/20 02:29:40;;;;;;;;;;;6.40;99.90;;;;;;8376245;28;19990;-72
2023/02/20 02:34:00;;;;;;;;;;;6.50;99.90;;;;;;8389881;28;19928;-73
2023/02/20 02:38:11;;;;;;;;;;;6.50;99.90;;;;;;8393107;28;20015;-73
2023/02/20 02:42:25;;;;;;;;;;;6.50;99.90;;;;;;8377774;28;19929;-72
2023/02/20 02:46:45;;;;;;;;;;;6.60;99.90;;;;;;8397635;28;19935;-72
2023/02/20 02:50:48;;;;;;;;;;;6.60;99.90;;;;;;8400355;28;19932;-72
2023/02/20 02:54:49;;;;;;;;;;;6.70;99.90;;;;;;8385322;28;19938;-72
2023/02/20 02:58:53;;;;;;;;;;;6.70;99.90;;;;;;8396353;28;19932;-72
2023/02/20 03:02:58;;;;;;;;;;;6.70;99.90;;;;;;8389801;28;20299;-72
2023/02/20 03:07:04;;;;;;;;;;;6.80;99.90;;;;;;8390835;28;20388;-72
2023/02/20 03:11:07;;;;;;;;;;;6.90;99.90;;;;;;8395675;28;19928;-72
2023/02/20 03:15:36;;;;;;;;;;;6.90;99.90;;;;;;8385426;28;19962;-72
2023/02/20 03:19:49;;;;;;;;;;;7.00;99.90;;;;;;8388062;28;20348;-72
2023/02/20 03:23:54;;;;;;;;;;;7.00;99.90;;;;;;8378878;28;19935;-73
2023/02/20 03:28:00;;;;;;;;;;;7.00;99.90;;;;;;8371283;28;19948;-72
2023/02/20 03:45:22;;;;;;;;;;;7.10;99.90;;;;;;8390016;28;19963;-72
2023/02/20 03:49:26;;;;;;;;;;;7.10;99.90;;;;;;8390996;28;19971;-73
2023/02/20 03:53:27;;;;;;;;;;;7.20;99.90;;;;;;8386206;28;19928;-72
2023/02/20 03:57:32;;;;;;;;;;;7.10;99.90;;;;;;8388176;28;19924;-73
2023/02/20 04:01:34;;;;;;;;;;;7.20;99.90;;;;;;8395838;28;19963;-70
2023/02/20 04:05:38;;;;;;;;;;;7.20;99.90;;;;;;8376257;28;20019;-69
2023/02/20 04:09:42;;;;;;;;;;;7.20;99.90;;;;;;8384220;28;19932;-73
2023/02/20 04:13:45;;;;;;;;;;;7.20;99.90;;;;;;8388832;28;19972;-72
2023/02/20 04:17:49;;;;;;;;;;;7.30;99.90;;;;;;8390209;28;19931;-72
2023/02/20 04:21:55;;;;;;;;;;;7.30;99.90;;;;;;8387324;28;19925;-72
2023/02/20 04:26:00;;;;;;;;;;;7.30;99.90;;;;;;8389542;28;19924;-72
2023/02/20 04:30:01;;;;;;;;;;;7.30;99.90;;;;;;8388954;28;20338;-72
2023/02/20 04:34:03;;;;;;;;;;;7.30;99.90;;;;;;8389367;28;20395;-72
2023/02/20 04:38:05;;;;;;;;;;;7.40;99.90;;;;;;8392929;28;19932;-72
2023/02/20 04:42:07;;;;;;;;;;;7.40;99.90;;;;;;8351996;28;19976;-73
2023/02/20 04:46:09;;;;;;;;;;;7.40;99.90;;;;;;8397039;28;19994;-73
2023/02/20 04:50:21;;;;;;;;;;;7.40;99.90;;;;;;8388203;28;19932;-72
2023/02/20 04:54:23;;;;;;;;;;;7.40;99.90;;;;;;8394052;28;19934;-72
2023/02/20 04:58:25;;;;;;;;;;;7.40;99.90;;;;;;8390023;28;20367;-72
2023/02/20 05:02:26;;;;;;;;;;;7.40;99.90;;;;;;8385215;28;20384;-72
2023/02/20 05:06:28;;;;;;;;;;;7.50;99.90;;;;;;8380163;28;19933;-72
2023/02/20 05:10:31;;;;;;;;;;;7.50;99.90;;;;;;8380286;28;19964;-73
2023/02/20 05:14:32;;;;;;;;;;;7.60;99.90;;;;;;8381640;28;19939;-72
2023/02/20 05:18:34;;;;;;;;;;;7.60;99.90;;;;;;8378501;28;19931;-72
2023/02/20 05:22:35;;;;;;;;;;;7.60;99.90;;;;;;8360589;28;19970;-72
2023/02/20 05:26:37;;;;;;;;;;;7.60;99.90;;;;;;8366029;28;20407;-72
2023/02/20 05:30:39;;;;;;;;;;;7.60;99.90;;;;;;8375403;28;19929;-72
2023/02/20 05:34:41;;;;;;;;;;;7.70;99.90;;;;;;8370079;28;19963;-72
2023/02/20 05:38:46;;;;;;;;;;;7.70;99.90;;;;;;8356744;28;20108;-72
2023/02/20 05:42:48;;;;;;;;;;;7.70;99.90;;;;;;8384105;28;19932;-72
2023/02/20 05:46:50;;;;;;;;;;;7.70;99.90;;;;;;8396353;28;20435;-72
2023/02/20 05:50:52;;;;;;;;;;;7.70;99.90;;;;;;8373910;28;19931;-73
2023/02/20 05:54:54;;;;;;;;;;;7.80;99.90;;;;;;8393464;28;19931;-72
2023/02/20 05:58:56;;;;;;;;;;;7.90;99.90;;;;;;8383891;28;19931;-72
2023/02/20 06:02:57;;;;;;;;;;;7.90;99.90;;;;;;8390560;28;19928;-73
2023/02/20 06:06:59;;;;;;;;;;;7.90;99.90;;;;;;8366363;28;19924;-73
2023/02/20 06:11:01;;;;;;;;;;;8.00;99.90;;;;;;8382035;28;19971;-72
2023/02/20 06:15:03;;;;;;;;;;;8.00;99.90;;;;;;8392746;28;19928;-72
2023/02/20 06:19:05;;;;;;;;;;;7.90;99.90;;;;;;8386576;28;19981;-72
2023/02/20 06:23:07;;;;;;;;;;;8.00;99.90;;;;;;8385794;28;19947;-72
2023/02/20 06:27:09;;;;;;;;;;;8.00;99.90;;;;;;8402020;28;19964;-73
2023/02/20 06:31:10;;;;;;;;;;;7.90;99.90;;;;;;8390600;28;20287;-72
2023/02/20 06:35:12;;;;;;;;;;;8.00;99.90;;;;;;8389627;28;19925;-73
2023/02/20 06:39:14;;;;;;;;;;;8.00;99.90;;;;;;8387846;28;19924;-72
2023/02/20 06:43:16;;;;;;;;;;;8.00;99.90;;;;;;8382302;28;19928;-72
2023/02/20 06:47:17;;;;;;;;;;;7.90;99.90;;;;;;8397821;28;19953;-73
2023/02/20 06:51:20;;;;;;;;;;;8.00;99.90;;;;;;8397537;28;19928;-73
2023/02/20 06:55:21;;;;;;;;;;;8.00;99.90;;;;;;8392120;28;20387;-72
2023/02/20 06:59:23;;;;;;;;;;;8.00;99.90;;;;;;8400340;28;19960;-72
2023/02/20 07:03:25;;;;;;;;;;;8.00;99.90;;;;;;8396294;28;19924;-73
2023/02/20 07:07:26;;;;;;;;;;;8.00;99.90;;;;;;8384262;28;20326;-72
2023/02/20 07:11:28;;;;;;;;;;;8.10;99.90;;;;;;8392543;28;19971;-73
2023/02/20 07:15:30;;;;;;;;;;;8.00;99.90;;;;;;8376116;28;19935;-73
2023/02/20 07:19:32;;;;;;;;;;;8.10;99.90;;;;;;8393683;28;19924;-73
2023/02/20 07:23:33;;;;;;;;;;;8.10;99.90;;;;;;8381560;28;19928;-73
2023/02/20 07:27:35;;;;;;;;;;;8.10;99.90;;;;;;8378085;28;19925;-72
2023/02/20 07:31:37;;;;;;;;;;;8.10;99.90;;;;;;8396869;28;19932;-73
2023/02/20 07:35:39;;;;;;;;;;;8.10;99.90;;;;;;8395183;28;20007;-72
2023/02/20 07:39:41;;;;;;;;;;;8.10;99.90;;;;;;8370787;28;19925;-73
2023/02/20 07:43:42;;;;;;;;;;;8.20;99.90;;;;;;8393206;28;20326;-73
2023/02/20 07:47:44;;;;;;;;;;;8.20;99.90;;;;;;8368697;28;20390;-73
2023/02/20 07:51:46;;;;;;;;;;;8.20;99.90;;;;;;8354663;28;19979;-72
2023/02/20 07:55:47;;;;;;;;;;;8.20;99.90;;;;;;8357693;28;20318;-73
2023/02/20 07:59:49;;;;;;;;;;;8.20;99.90;;;;;;8358478;28;19928;-73
2023/02/20 08:03:50;;;;;;;;;;;8.20;99.90;;;;;;8353998;28;20297;-72
2023/02/20 08:07:53;;;;;;;;;;;8.20;99.90;;;;;;8356616;28;19932;-73
2023/02/20 08:11:54;;;;;;;;;;;8.30;99.90;;;;;;8356913;28;19925;-73
2023/02/20 08:15:57;;;;;;;;;;;8.30;99.90;;;;;;8353967;28;19924;-73
2023/02/20 08:19:59;;;;;;;;;;;8.40;99.90;;;;;;8362880;28;20372;-72
2023/02/20 08:24:00;;;;;;;;;;;8.40;99.90;;;;;;8359619;28;20336;-73
2023/02/20 08:28:02;;;;;;;;;;;8.40;99.90;;;;;;8356591;28;19979;-73
2023/02/20 08:32:03;;;;;;;;;;;8.40;99.90;;;;;;8357022;28;19924;-72
2023/02/20 08:36:05;;;;;;;;;;;8.40;99.90;;;;;;8355286;28;19990;-73
2023/02/20 08:40:08;;;;;;;;;;;8.50;99.90;;;;;;8350687;28;19984;-72
2023/02/20 08:44:09;;;;;;;;;;;8.50;99.90;;;;;;8356545;28;19925;-72
2023/02/20 08:48:11;;;;;;;;;;;8.60;99.90;;;;;;8361416;28;19937;-73
2023/02/20 08:52:13;;;;;;;;;;;8.60;99.90;;;;;;8388961;28;19928;-72
2023/02/20 08:56:16;;;;;;;;;;;8.60;99.90;;;;;;8391829;28;19928;-73
2023/02/20 09:00:18;;;;;;;;;;;8.50;99.90;;;;;;8391215;28;19954;-73
2023/02/20 09:04:22;;;;;;;;;;;8.60;99.90;;;;;;8393559;28;19928;-72
2023/02/20 09:08:24;;;;;;;;;;;8.60;99.90;;;;;;8394400;28;20019;-73
2023/02/20 09:12:25;;;;;;;;;;;8.70;99.90;;;;;;8387645;28;19932;-72
2023/02/20 09:16:27;;;;;;;;;;;8.70;99.90;;;;;;8392117;28;20022;-73
2023/02/20 09:20:28;;;;;;;;;;;8.70;99.90;;;;;;8382159;28;19931;-72
2023/02/20 09:24:33;;;;;;;;;;;8.70;99.90;;;;;;8392779;28;19979;-72
2023/02/20 09:28:35;;;;;;;;;;;8.70;99.90;;;;;;8388866;28;19924;-73
2023/02/20 09:32:36;;;;;;;;;;;8.70;99.90;;;;;;8387515;28;20307;-72
2023/02/20 09:36:38;;;;;;;;;;;8.70;99.90;;;;;;8394590;28;20548;-72
2023/02/20 09:40:40;;;;;;;;;;;8.70;99.90;;;;;;8379896;28;19924;-72
2023/02/20 09:44:48;;;;;;;;;;;8.70;99.90;;;;;;8368535;28;20479;-72
2023/02/20 09:49:08;;;;;;;;;;;8.60;99.90;;;;;;8386935;28;19930;-72
2023/02/20 09:53:16;;;;;;;;;;;8.70;99.90;;;;;;8391976;28;20511;-72
2023/02/20 09:57:21;;;;;;;;;;;8.70;99.90;;;;;;8381525;28;19929;-73
2023/02/20 10:01:23;;;;;;;;;;;8.60;99.90;;;;;;8370457;28;19931;-73
2023/02/20 10:05:26;;;;;;;;;;;8.70;99.90;;;;;;8383910;28;19964;-72
2023/02/20 10:09:28;;;;;;;;;;;8.70;99.90;;;;;;8385331;28;20326;-72
2023/02/20 10:13:53;;;;;;;;;;;8.60;99.90;;;;;;8390251;28;19933;-72
2023/02/20 10:18:16;;;;;;;;;;;8.70;99.90;;;;;;8386413;28;19924;-73
2023/02/20 10:22:37;;;;;;;;;;;8.70;99.90;;;;;;8388368;28;19958;-73
2023/02/20 10:26:43;;;;;;;;;;;8.70;99.90;;;;;;8390611;28;20023;-72
2023/02/20 10:30:48;;;;;;;;;;;8.70;99.90;;;;;;8393455;28;19960;-72
2023/02/20 10:34:57;;;;;;;;;;;8.70;99.90;;;;;;8393001;28;19931;-73
2023/02/20 10:39:04;;;;;;;;;;;8.80;99.90;;;;;;8395663;28;19936;-72
2023/02/20 10:43:12;;;;;;;;;;;8.80;99.90;;;;;;8386469;28;19928;-72
2023/02/20 10:47:32;;;;;;;;;;;8.80;99.90;;;;;;8397746;28;20345;-73
2023/02/20 10:51:38;;;;;;;;;;;8.80;99.90;;;;;;8391762;28;19931;-73
2023/02/20 10:55:47;;;;;;;;;;;8.80;99.90;;;;;;8372272;28;19959;-72
2023/02/20 10:59:49;;;;;;;;;;;8.80;99.90;;;;;;8388157;28;20015;-72
2023/02/20 11:04:09;;;;;;;;;;;8.80;99.90;;;;;;8394990;28;19963;-72
2023/02/20 11:08:11;;;;;;;;;;;8.80;99.90;;;;;;8405461;28;19925;-72
2023/02/20 11:12:28;;;;;;;;;;;8.80;99.90;;;;;;8377134;28;19934;-72
2023/02/20 11:16:35;;;;;;;;;;;8.90;99.90;;;;;;8382570;28;19924;-72
2023/02/20 11:20:40;;;;;;;;;;;8.80;99.90;;;;;;8393861;28;19932;-72
2023/02/20 11:24:42;;;;;;;;;;;8.80;99.90;;;;;;8386757;28;19951;-72
2023/02/20 11:28:45;;;;;;;;;;;8.90;99.90;;;;;;8381506;28;20014;-72
2023/02/20 11:32:47;;;;;;;;;;;8.90;99.90;;;;;;8383029;28;19936;-72
2023/02/20 11:36:50;;;;;;;;;;;9.00;99.90;;;;;;8389377;28;20384;-73
2023/02/20 11:40:52;;;;;;;;;;;9.00;99.90;;;;;;8346810;28;19972;-72
2023/02/20 11:45:13;;;;;;;;;;;9.00;99.90;;;;;;8370039;28;19960;-73
2023/02/20 11:49:22;;;;;;;;;;;9.00;99.90;;;;;;8361951;28;20340;-72
2023/02/20 11:53:31;;;;;;;;;;;9.00;99.90;;;;;;8360333;28;19931;-72
2023/02/20 11:57:37;;;;;;;;;;;9.10;99.90;;;;;;8360025;28;19928;-72
2023/02/20 12:01:39;;;;;;;;;;;9.20;99.90;;;;;;8369926;28;19963;-72
2023/02/20 12:05:43;;;;;;;;;;;9.20;99.90;;;;;;8372948;28;19932;-73
2023/02/20 12:09:47;;;;;;;;;;;9.20;99.90;;;;;;8351869;28;19928;-72
2023/02/20 12:13:51;;;;;;;;;;;9.20;99.90;;;;;;8361674;28;19924;-72
2023/02/20 12:18:03;;;;;;;;;;;9.30;99.90;;;;;;8345471;28;19929;-73
2023/02/20 12:22:08;;;;;;;;;;;9.30;99.90;;;;;;8361866;28;19939;-72
2023/02/20 12:26:28;;;;;;;;;;;9.40;99.90;;;;;;8363098;28;19924;-72
2023/02/20 12:30:30;;;;;;;;;;;9.40;99.90;;;;;;8355576;28;19955;-70
2023/02/20 12:34:44;;;;;;;;;;;9.40;99.90;;;;;;8360928;28;19963;-70
2023/02/20 12:38:58;;;;;;;;;;;9.40;99.90;;;;;;8359406;28;19933;-71
2023/02/20 12:43:00;;;;;;;;;;;9.40;99.90;;;;;;8362539;28;19928;-70
2023/02/20 12:47:08;;;;;;;;;;;9.40;99.90;;;;;;8362676;28;20278;-71
2023/02/20 12:51:12;;;;;;;;;;;9.40;99.90;;;;;;8361858;28;20020;-70
2023/02/20 12:55:33;;;;;;;;;;;9.40;99.90;;;;;;8359919;28;19939;-71
2023/02/20 13:00:01;;;;;;;;;;;9.40;99.90;;;;;;8359045;28;19974;-70
2023/02/20 13:04:15;;;;;;;;;;;9.40;99.90;;;;;;8355248;28;19929;-71
2023/02/20 13:08:17;;;;;;;;;;;9.40;99.90;;;;;;8360505;28;19988;-70
2023/02/20 13:12:20;;;;;;;;;;;9.50;99.90;;;;;;8358103;28;21031;-71
2023/02/20 13:16:25;;;;;;;;;;;9.40;99.90;;;;;;8364778;28;19925;-71
2023/02/20 13:20:29;;;;;;;;;;;9.40;99.90;;;;;;8338386;28;19968;-70
2023/02/20 13:24:32;;;;;;;;;;;9.40;99.90;;;;;;8356699;28;20019;-70
2023/02/20 13:28:36;;;;;;;;;;;9.50;99.90;;;;;;8361431;28;20348;-70
2023/02/20 13:32:38;;;;;;;;;;;9.40;99.90;;;;;;8356092;28;19960;-71
2023/02/20 13:36:43;;;;;;;;;;;9.40;99.90;;;;;;8357676;28;19972;-70
2023/02/20 13:41:02;;;;;;;;;;;9.40;99.90;;;;;;8360318;28;20328;-70
2023/02/20 13:45:23;;;;;;;;;;;9.50;99.90;;;;;;8342127;28;19935;-70
2023/02/20 13:49:43;;;;;;;;;;;9.50;99.90;;;;;;8354780;28;19929;-70
2023/02/20 13:53:50;;;;;;;;;;;9.40;99.90;;;;;;8363912;28;20258;-70
2023/02/20 13:57:56;;;;;;;;;;;9.40;99.90;;;;;;8344230;28;19925;-71
2023/02/20 14:02:03;;;;;;;;;;;9.30;99.90;;;;;;8341818;28;20411;-71
2023/02/20 14:06:04;;;;;;;;;;;9.40;99.90;;;;;;8359297;28;19925;-71
2023/02/20 14:10:18;;;;;;;;;;;9.40;99.90;;;;;;8370925;28;20003;-70
2023/02/20 14:14:31;;;;;;;;;;;9.40;99.90;;;;;;8356791;28;20389;-71
2023/02/20 14:18:34;;;;;;;;;;;9.50;99.90;;;;;;8356166;28;19968;-70
2023/02/20 14:22:36;;;;;;;;;;;9.50;99.90;;;;;;8363459;28;19979;-70
2023/02/20 14:26:37;;;;;;;;;;;9.50;99.90;;;;;;8361573;28;19964;-71
2023/02/20 14:30:39;;;;;;;;;;;9.40;99.90;;;;;;8367394;28;19925;-71
2023/02/20 14:34:46;;;;;;;;;;;9.40;99.90;;;;;;8361240;28;19952;-70
2023/02/20 14:39:06;;;;;;;;;;;9.40;99.90;;;;;;8359066;28;19939;-70
2023/02/20 14:43:17;;;;;;;;;;;9.40;99.90;;;;;;8356982;28;21294;-71
2023/02/20 14:47:19;;;;;;;;;;;9.40;99.90;;;;;;8359681;28;20363;-71
2023/02/20 14:51:24;;;;;;;;;;;9.50;99.90;;;;;;8344588;28;19937;-71
2023/02/20 14:55:26;;;;;;;;;;;9.50;99.90;;;;;;8362537;28;19939;-70
2023/02/20 14:59:27;;;;;;;;;;;9.40;99.90;;;;;;8357609;28;19932;-70
2023/02/20 15:03:30;;;;;;;;;;;9.30;99.90;;;;;;8367290;28;19943;-71
2023/02/20 15:07:32;;;;;;;;;;;9.30;99.90;;;;;;8377995;28;19933;-71
2023/02/20 15:11:35;;;;;;;;;;;9.30;99.90;;;;;;8353136;28;19948;-70
2023/02/20 15:15:38;;;;;;;;;;;9.30;99.90;;;;;;8368153;28;19932;-71
2023/02/20 15:19:40;;;;;;;;;;;9.30;99.90;;;;;;8362563;28;19924;-72
2023/02/20 15:23:43;;;;;;;;;;;9.30;99.90;;;;;;8359292;28;19968;-72
2023/02/20 15:28:03;;;;;;;;;;;9.30;99.90;;;;;;8366745;28;19932;-71
2023/02/20 15:32:14;;;;;;;;;;;9.30;99.90;;;;;;8362713;28;20015;-71
2023/02/20 15:36:18;;;;;;;;;;;9.40;99.90;;;;;;8363741;28;20003;-72
2023/02/20 15:40:21;;;;;;;;;;;9.40;99.90;;;;;;8347146;28;19967;-71
2023/02/20 15:44:23;;;;;;;;;;;9.40;99.90;;;;;;8366563;28;19929;-72
2023/02/20 15:48:25;;;;;;;;;;;9.50;99.90;;;;;;8365364;28;20027;-72
2023/02/20 15:52:28;;;;;;;;;;;9.40;99.90;;;;;;8376547;28;19971;-71
2023/02/20 15:56:31;;;;;;;;;;;9.40;99.90;;;;;;8366473;28;20471;-71
2023/02/20 16:00:33;;;;;;;;;;;9.40;99.90;;;;;;8353394;28;19936;-71
2023/02/20 16:04:34;;;;;;;;;;;9.30;99.90;;;;;;8357424;28;20382;-71
2023/02/20 16:08:36;;;;;;;;;;;9.40;99.90;;;;;;8357156;28;19975;-71
2023/02/20 16:12:38;;;;;;;;;;;9.40;99.90;;;;;;8356236;28;20416;-71
2023/02/20 16:16:41;;;;;;;;;;;9.30;99.90;;;;;;8364225;28;19936;-71
2023/02/20 16:20:43;;;;;;;;;;;9.30;99.90;;;;;;8373985;28;19933;-71
2023/02/20 16:24:45;;;;;;;;;;;9.30;99.90;;;;;;8355887;28;20031;-71
2023/02/20 16:28:57;;;;;;;;;;;9.20;99.90;;;;;;8356730;28;20548;-71
2023/02/20 16:32:59;;;;;;;;;;;9.20;99.90;;;;;;8342156;28;20015;-71
2023/02/20 16:37:02;;;;;;;;;;;9.30;99.90;;;;;;8362254;28;19979;-71
2023/02/20 16:41:05;;;;;;;;;;;9.30;99.90;;;;;;8347170;28;19936;-71
2023/02/20 16:45:11;;;;;;;;;;;9.20;99.90;;;;;;8357501;28;20399;-71
2023/02/20 16:49:16;;;;;;;;;;;9.20;99.90;;;;;;8362771;28;20391;-71
2023/02/20 16:53:18;;;;;;;;;;;9.20;99.90;;;;;;8363502;28;19924;-71
2023/02/20 16:57:23;;;;;;;;;;;9.20;99.90;;;;;;8355334;28;20303;-71
2023/02/20 17:01:24;;;;;;;;;;;9.10;99.90;;;;;;8371947;28;19939;-71
2023/02/20 17:05:28;;;;;;;;;;;9.10;99.90;;;;;;8359193;28;19932;-71
2023/02/20 17:09:29;;;;;;;;;;;9.10;99.90;;;;;;8357490;28;19933;-71
2023/02/20 17:13:42;;;;;;;;;;;9.10;99.90;;;;;;8361694;28;19924;-71
2023/02/20 17:17:45;;;;;;;;;;;9.10;99.90;;;;;;8359980;28;19939;-71
2023/02/20 17:21:47;;;;;;;;;;;9.00;99.90;;;;;;8342810;28;19935;-71
2023/02/20 17:25:49;;;;;;;;;;;9.00;99.90;;;;;;8364776;28;20024;-71
2023/02/20 17:29:51;;;;;;;;;;;9.00;99.90;;;;;;8351108;28;20043;-71
2023/02/20 17:33:52;;;;;;;;;;;9.00;99.90;;;;;;8359719;28;19940;-71
2023/02/20 17:37:54;;;;;;;;;;;9.00;99.90;;;;;;8338718;28;19935;-72
2023/02/20 17:41:56;;;;;;;;;;;8.90;99.90;;;;;;8363681;28;19939;-71
2023/02/20 17:45:57;;;;;;;;;;;8.90;99.90;;;;;;8363709;28;20135;-71
2023/02/20 17:49:59;;;;;;;;;;;8.90;99.90;;;;;;8354826;28;19929;-71
2023/02/20 17:54:01;;;;;;;;;;;8.90;99.90;;;;;;8364808;28;19964;-71
2023/02/20 17:58:03;;;;;;;;;;;8.90;99.90;;;;;;8355950;28;19931;-71
2023/02/20 18:02:06;;;;;;;;;;;8.80;99.90;;;;;;8359360;28;20608;-71
2023/02/20 18:06:08;;;;;;;;;;;8.80;99.90;;;;;;8355633;28;20312;-71
2023/02/20 18:10:09;;;;;;;;;;;8.80;99.90;;;;;;8347656;28;19931;-71
2023/02/20 18:14:11;;;;;;;;;;;8.80;99.90;;;;;;8360146;28;19979;-71
2023/02/20 18:18:14;;;;;;;;;;;8.80;99.90;;;;;;8340984;28;20047;-71
2023/02/20 18:22:15;;;;;;;;;;;8.80;99.90;;;;;;8359005;28;20014;-71
2023/02/20 18:26:17;;;;;;;;;;;8.80;99.90;;;;;;8362523;28;19943;-72
2023/02/20 18:30:20;;;;;;;;;;;8.80;99.90;;;;;;8358999;28;19967;-71
2023/02/20 18:34:22;;;;;;;;;;;8.80;99.90;;;;;;8364324;28;19924;-71
2023/02/20 18:38:24;;;;;;;;;;;8.80;99.90;;;;;;8366625;28;20289;-71
2023/02/20 18:42:26;;;;;;;;;;;8.80;99.90;;;;;;8366552;28;20380;-71
2023/02/20 18:46:29;;;;;;;;;;;8.80;99.90;;;;;;8354861;28;20037;-72
2023/02/20 18:50:30;;;;;;;;;;;8.80;99.90;;;;;;8359871;28;19924;-71
2023/02/20 18:54:32;;;;;;;;;;;8.80;99.90;;;;;;8365091;28;19939;-71
2023/02/20 18:58:34;;;;;;;;;;;8.80;99.90;;;;;;8362410;28;19931;-71
2023/02/20 19:02:35;;;;;;;;;;;8.90;99.90;;;;;;8368471;28;19924;-71
2023/02/20 19:06:42;;;;;;;;;;;8.90;99.90;;;;;;8369183;28;19985;-71
2023/02/20 19:10:44;;;;;;;;;;;8.80;99.90;;;;;;8367511;28;19925;-71
2023/02/20 19:14:46;;;;;;;;;;;8.80;99.90;;;;;;8368347;28;19939;-71
2023/02/20 19:18:47;;;;;;;;;;;8.80;99.90;;;;;;8363827;28;19933;-71
2023/02/20 19:22:52;;;;;;;;;;;8.80;99.90;;;;;;8364119;28;19995;-71
2023/02/20 19:26:54;;;;;;;;;;;8.80;99.90;;;;;;8366094;28;19933;-72
2023/02/20 19:30:55;;;;;;;;;;;8.70;99.90;;;;;;8364299;28;19924;-71
2023/02/20 19:34:57;;;;;;;;;;;8.80;99.90;;;;;;8363380;28;20355;-71
2023/02/20 19:38:58;;;;;;;;;;;8.70;99.90;;;;;;8375486;28;19968;-71
2023/02/20 19:53:07;;;;;;;;;;;8.70;99.90;;;;;;8352211;28;20081;-71
2023/02/20 19:57:08;;;;;;;;;;;8.70;99.90;;;;;;8368907;28;19933;-71
2023/02/20 20:01:14;;;;;;;;;;;8.70;99.90;;;;;;8365659;28;19979;-71
2023/02/20 20:05:17;;;;;;;;;;;8.70;99.90;;;;;;8364165;28;19978;-71
2023/02/20 20:09:19;;;;;;;;;;;8.80;99.90;;;;;;8367025;28;19935;-72
2023/02/20 20:13:35;;;;;;;;;;;8.80;99.90;;;;;;8364662;28;19982;-71
2023/02/20 20:17:37;;;;;;;;;;;8.80;99.90;;;;;;8365990;28;19925;-71
2023/02/20 20:21:39;;;;;;;;;;;8.80;99.90;;;;;;8361216;28;19954;-71
2023/02/20 20:25:40;;;;;;;;;;;8.80;99.90;;;;;;8368919;28;20296;-71
2023/02/20 20:29:45;;;;;;;;;;;8.70;99.90;;;;;;8364775;28;19925;-71
2023/02/20 20:33:47;;;;;;;;;;;8.70;99.90;;;;;;8353139;28;20449;-71
2023/02/20 20:37:49;;;;;;;;;;;8.80;99.90;;;;;;8362443;28;19933;-71
2023/02/20 20:41:50;;;;;;;;;;;8.80;99.90;;;;;;8358548;28;20011;-71
2023/02/20 20:45:52;;;;;;;;;;;8.80;99.90;;;;;;8360755;28;20023;-71
2023/02/20 20:49:54;;;;;;;;;;;8.80;99.90;;;;;;8366398;28;20364;-71
2023/02/20 20:53:55;;;;;;;;;;;8.80;99.90;;;;;;8363113;28;19972;-71
2023/02/20 20:57:57;;;;;;;;;;;8.80;99.90;;;;;;8356348;28;19984;-71
2023/02/20 21:01:59;;;;;;;;;;;8.80;99.90;;;;;;8360482;28;19932;-71
2023/02/20 21:06:01;;;;;;;;;;;8.80;99.90;;;;;;8363686;28;20379;-71
2023/02/20 21:10:04;;;;;;;;;;;8.80;99.90;;;;;;8352997;28;20385;-71
2023/02/20 21:14:06;;;;;;;;;;;8.90;99.90;;;;;;8361777;28;19931;-71
2023/02/20 21:18:08;;;;;;;;;;;8.90;99.90;;;;;;8357247;28;20304;-71
2023/02/20 21:22:09;;;;;;;;;;;8.90;99.90;;;;;;8342594;28;20003;-71
2023/02/20 21:26:11;;;;;;;;;;;8.90;99.90;;;;;;8363065;28;19928;-71
2023/02/20 21:30:13;;;;;;;;;;;8.90;99.90;;;;;;8356442;28;19924;-71
2023/02/20 21:34:15;;;;;;;;;;;8.90;99.90;;;;;;8362439;28;19951;-71
2023/02/20 21:38:17;;;;;;;;;;;8.90;99.90;;;;;;8342730;28;19924;-71
2023/02/20 21:46:39;;;;;;;;;;;8.90;99.90;;;;;;8360123;28;20284;-71
2023/02/20 21:50:40;;;;;;;;;;;8.90;99.90;;;;;;8362472;28;20406;-71
2023/02/20 21:54:46;;;;;;;;;;;8.90;99.90;;;;;;8364066;28;19970;-71
